Terminal Aerodrome Forecast
Issued by NWS Bismarck, ND

Home | Current Version | Previous Version | Text Only | Print | Product List | Glossary On
Versions: 1 2 3 4 5 6 7 8 9 10 11 12 13 14 15 16
000
FTUS43 KBIS 250500
TAFISN
TAF
KISN 250520Z 2506/2606 23003KT P6SM BKN100
     FM251000 25003KT P6SM SKC
     FM251700 28007KT P6SM SCT070
     FM252100 03007KT P6SM BKN090
     FM260200 09013KT P6SM SCT080=

USA.gov is the U.S. government's official web portal to all federal, state and local government web resources and services.